AIC2129 VERP-VOHS
Flight info
| Callsign | AIC2129 |
|---|---|
| Flight time | N/A |
| Altitude | 36000 |
| Route | DCT RRP W136 ANBAS RISOT6 |
| Aircraft | A21N/M-SDE2E3FGHIRWXY/LB1 |
Departure
| Time | 2026-04-15 13:55 |
|---|---|
| Airport | Swami Vivekananda Airport (VERP) |
Arrival
| Time | N/A |
|---|---|
| Airport | Rajiv Gandhi International Airport (VOHS) |
| Time | Latitude | Longitude | Altitude | Speed | Heading |
|---|---|---|---|---|---|
| 2026-04-15 13:38 | 21.18512 | 81.74074 | 1050 ft | 0 kts | 330° |
| 2026-04-15 13:49 | 21.18502 | 81.74080 | 1050 ft | 2 kts | 329° |
| 2026-04-15 13:49 | 21.18489 | 81.74088 | 1050 ft | 2 kts | 330° |
| 2026-04-15 13:50 | 21.18476 | 81.74097 | 1050 ft | 2 kts | 338° |
| 2026-04-15 13:50 | 21.18461 | 81.74097 | 1050 ft | 2 kts | 21° |
| 2026-04-15 13:50 | 21.18449 | 81.74088 | 1050 ft | 1 kts | 56° |
| 2026-04-15 13:50 | 21.18446 | 81.74081 | 1050 ft | 1 kts | 62° |
| 2026-04-15 13:51 | 21.18445 | 81.74080 | 1050 ft | 0 kts | 62° |
| 2026-04-15 13:52 | 21.18461 | 81.74111 | 1050 ft | 9 kts | 61° |
| 2026-04-15 13:53 | 21.18484 | 81.74157 | 1050 ft | 6 kts | 61° |
| 2026-04-15 13:53 | 21.18481 | 81.74210 | 1050 ft | 10 kts | 137° |
| 2026-04-15 13:53 | 21.18410 | 81.74258 | 1050 ft | 14 kts | 149° |
| 2026-04-15 13:53 | 21.18322 | 81.74324 | 1050 ft | 15 kts | 123° |
| 2026-04-15 13:54 | 21.18347 | 81.74416 | 1050 ft | 14 kts | 59° |
| 2026-04-15 13:54 | 21.18412 | 81.74531 | 1050 ft | 20 kts | 59° |
| 2026-04-15 13:54 | 21.18434 | 81.74634 | 1050 ft | 13 kts | 105° |
| 2026-04-15 13:54 | 21.18451 | 81.74637 | 1050 ft | 11 kts | 268° |
| 2026-04-15 13:55 | 21.18414 | 81.74532 | 1050 ft | 25 kts | 239° |
| 2026-04-15 13:55 | 21.18197 | 81.74141 | 1050 ft | 101 kts | 238° |
| 2026-04-15 13:55 | 21.17698 | 81.73261 | 1054 ft | 171 kts | 239° |
| 2026-04-15 13:55 | 21.17070 | 81.72148 | 1745 ft | 177 kts | 239° |
| 2026-04-15 13:56 | 21.16437 | 81.71022 | 2586 ft | 183 kts | 239° |
| 2026-04-15 13:56 | 21.15694 | 81.69919 | 3087 ft | 188 kts | 228° |
| 2026-04-15 13:56 | 21.14675 | 81.68947 | 3342 ft | 201 kts | 216° |
| 2026-04-15 13:56 | 21.13484 | 81.68079 | 3609 ft | 214 kts | 217° |